Предлагаем Вашему вниманию английскую версию страницы: AUTOTAF.ME 26653 - aviation weather forecast Polotsk

AUTOTAF 26653 - авиапрогноз Полоцк

Сегодня рассвет 04:21 UTC, восход солнца 04:59 UTC,
местный полдень 09:48 UTC, заход солнца 14:37 UTC,
наступление темноты 15:16 UTC.

Краткий прогноз 26653 на 9 часов

AUTOTAF.ME 26653 261400Z 2615/2624 16005G11MPS 9999 BKN014    
  FM261800 15005G13MPS 5000 BR OVC014 
  FM262100 16005G12MPS 9999 BKN014 
  FM270000 15005G12MPS 5000 BR BKN014

Детальный прогноз 26653 на 24 часа

AUTOTAF.ME 26653 261400Z 2615/2715 16005G11MPS 9999 BKN014 TX13/2712Z TN07/2703Z  
  FM261800 15005G13MPS 5000 BR OVC014 
  FM262100 16005G12MPS 9999 BKN014 
  FM270000 15005G12MPS 5000 BR BKN014  
  FM270600 16005G13MPS 9999 BKN014

Подробный табличный прогноз

Время (UTC) miniAUTOTAF на 3 ч WX FZLVL
M AGL
ICE TURB Т
(°С)
Тd
(°С)
f(%) QNH
(гПа)
WIND/T
12 16008G14MPS 9999 BKN010 2400 FBL FL90/FL190 MOD SFC/FL20 11 8 81 1017 ...
15 16005G11MPS 9999 BKN014 2400 FBL FL90/FL190 MOD SFC/FL30 10 8 85 1016 ...
18 15005G13MPS 5000 BR OVC014 BR 2400 MOD FL120/FL130 MOD SFC/FL20 9 7 89 1017 ...
21 16005G12MPS 9999 BKN014 2400 MOD FL90/FL120 MOD SFC/FL90 9 7 87 1016 ...
27.10.2020
00 15005G12MPS 5000 BR BKN014 BR 2550 MOD FL90/FL170 MOD SFC/FL20 8 6 89 1016 ...
03 16005G12MPS 5000 BR BKN014 BR 2550 FBL FL110/FL120 7 5 90 1016 ...
06 16005G13MPS 9999 BKN014 2700 MOD FL120/FL130 MOD SFC/FL20 7 5 89 1016 ...
09 17006G11MPS 9999 BKN014 2700 MOD FL120/FL130 MOD SFC/FL30 11 7 77 1016 ...
12 17005G10MPS 9999 BKN014 2550 FBL FL110/FL120 MOD SFC/FL30 13 8 73 1015 ...
15 16004MPS 9999 BKN014 2550 10 8 86 1015 ...
18 18004MPS 5000 BR BKN014 BR 2700 MOD SFC/FL20 9 7 90 1016 ...
21 17004MPS 3000 BR BKN005 BR 2400 8 7 93 1015 ...
28.10.2020
00 17004MPS 2000 BR BKN005 BR 2400 MOD FL90/FL100 8 7 95 1015 ...
03 17005G10MPS 2000 BR BKN001 BR 2550 8 7 96 1014 ...
06 19005MPS 3000 BR BKN002 BR 2400 9 9 95 1015 ...
09 19004MPS 5000 BR OVC004 BR 2250 MOD SFC/FL20 11 9 91 1016 ...


Широта 55.4754°, долгота 28.7517°, высота 132.5 м абс.
Средняя высота рельефа местности 138 м абс.
Прогнозы обновляются четыре раза в сутки: в 02, 08, 14, 20 ч всемирного времени.


Выбрать прогноз по другой модели Полоцк
Онлайн-сводка гроз по Полоцк (для РФ и ближнего зарубежья)
Карта фактических гроз в окрестностях Полоцк
Динамические прогностические карты (ventusky.com)
Прогностическая карта высоты нижней границы облаков по Полоцк (windy.com)
Выбрать другой город

Прогноз предназначен для личного научно-познавательного использования частными лицами
и не предназначен для принятия важных решений и выполнения реальных полётов воздушных судов

При копировании или ином использовании любых материалов данного сайта ссылка на © meteocenter.asia обязательна.

1.26/1.8